Pont d'Inca, Spain

11:14 PM CET on January 22, 2017 (GMT +0100)
Pont d'Inca Marratxi | | Change Station
Active Advisory: >

Elev 85 ft 39.59 °N, 2.70 °E | Updated 43 seconds ago

Rain
Rain
47.9 °F
Feels Like 48 °F
N
0.0
Wind Variable Wind from North
Gusts 3.0 mph

Today
High -- | Low -- °F
--% Chance of Precip.
Yesterday
High -- | Low -- °F
Precip. -- in
Pressure 29.89 in
Visibility 6.2 miles
Clouds Few 1600 ft
Few 2500 ft
Scattered Clouds 4800 ft
Windchill 48 °F
Dew Point 46 °F
Humidity 92%
Rainfall 0.25 in
Snow Depth Not available.
8:04 AM 5:57 PM
Waning Crescent, 23% visible
METAR LEPA 222200Z 07003KT 9999 -RA FEW016 FEW025TCU SCT048 09/07 Q1012 NOSIG
Pressure 29.89 in
Visibility 6.2 miles
Clouds Few 1600 ft
Few 2500 ft
Scattered Clouds 4800 ft
Windchill 48 °F
Dew Point 46 °F
Humidity 92%
Rainfall 0.25 in
Snow Depth Not available.
8:04 AM 5:57 PM
Waning Crescent, 23% visible
METAR LEPA 222200Z 07003KT 9999 -RA FEW016 FEW025TCU SCT048 09/07 Q1012 NOSIG

Get Your Daily Forecast Email!

Thanks for signing up!

Be on the lookout for a verification email in your inbox.

You'll start receiving the daily forecast at 8 AM.

×

10-Day Weather Forecast

×

Almanac

Astronomy

Jan. 22, 2017 Rise Set
Actual Time
Civil Twilight
Nautical Twilight
Astronomical Twilight
Moon
Length of Visible Light
Length of Day
Tomorrow will be .
, % of the Moon is Illuminated

Today's Extremes

Country Highs Country Lows

Community

WunderPhotos

Upload Photos

1,962,540 photos uploaded!

WunderBlog® & News

Nearby

Air Quality

  Air Quality AQ Index Pollutant
Not available.

Snow Depth

Station Depth Elevation

Earthquake Activity

City Distance Mag. Time & Date
Minimum magnitude displayed is 2.5.

Coastal Water Temperatures

Place Temperature

Stations

Nearby Weather Stations

Station Location Temp. Windchill Dew Point Humidity Wind Precip. Elev Updated Type